Time,TemperatureF,DewpointF,PressureIn,WindDirection,WindDirectionDegrees,WindSpeedMPH,WindSpeedGustMPH,Humidity,HourlyPrecipIn,Conditions,Clouds,dailyrainin,SolarRadiationWatts/m^2,SoftwareType,DateUTC
2013-02-22 00:00:00,21.0,20.0,-100.00,ENE,74,1.0,5.0,94,-99.99,,,0.00,0.000000,,2013-02-22 07:00:00,
2013-02-22 00:52:00,21.0,20.0,-100.00,ENE,74,1.0,5.0,94,-99.99,,,0.00,0.000000,,2013-02-22 07:52:00,
2013-02-22 01:00:00,21.0,20.0,-100.00,ENE,74,2.0,5.0,95,-99.99,,,0.00,0.000000,,2013-02-22 08:00:00,
2013-02-22 01:52:00,21.0,20.0,-100.00,ENE,74,2.0,5.0,95,-99.99,,,0.00,0.000000,,2013-02-22 08:52:00,
2013-02-22 02:00:00,21.0,19.0,-100.00,NE,53,1.0,5.0,93,-99.99,,,0.00,0.000000,,2013-02-22 09:00:00,
2013-02-22 02:52:00,21.0,19.0,-100.00,NE,53,1.0,5.0,93,-99.99,,,0.00,0.000000,,2013-02-22 09:52:00,
2013-02-22 03:00:00,21.0,19.0,-100.00,ENE,60,1.0,4.0,93,-99.99,,,0.00,0.000000,,2013-02-22 10:00:00,
2013-02-22 03:52:00,21.0,19.0,-100.00,ENE,60,1.0,4.0,93,-99.99,,,0.00,0.000000,,2013-02-22 10:52:00,
2013-02-22 04:00:00,20.0,19.0,-100.00,NE,56,1.0,4.0,95,-99.99,,,0.00,0.000000,,2013-02-22 11:00:00,
2013-02-22 04:52:00,20.0,19.0,-100.00,NE,56,1.0,4.0,95,-99.99,,,0.00,0.000000,,2013-02-22 11:52:00,
2013-02-22 05:00:00,20.0,18.0,-100.00,NE,55,1.0,4.0,94,-99.99,,,0.00,0.000000,,2013-02-22 12:00:00,
2013-02-22 05:52:00,20.0,18.0,-100.00,NE,55,1.0,4.0,94,-99.99,,,0.00,0.000000,,2013-02-22 12:52:00,
2013-02-22 06:00:00,20.0,18.0,-100.00,NE,49,1.0,4.0,94,-99.99,,,0.00,0.000000,,2013-02-22 13:00:00,
2013-02-22 06:52:00,20.0,18.0,-100.00,NE,49,1.0,4.0,94,-99.99,,,0.00,0.000000,,2013-02-22 13:52:00,
2013-02-22 07:00:00,19.0,-99.9,-100.00,North,-999,-999.0,-999.0,-999,-99.99,,,0.00,,,2013-02-22 14:00:00,
2013-02-22 07:53:00,19.0,-99.9,-100.00,North,-999,-999.0,-999.0,-999,-99.99,,,0.00,,,2013-02-22 14:53:00,
2013-02-22 08:00:00,20.0,-99.9,-100.00,North,-999,-999.0,-999.0,-999,-99.99,,,0.00,,,2013-02-22 15:00:00,
2013-02-22 08:52:00,20.0,-99.9,-100.00,North,-999,-999.0,-999.0,-999,-99.99,,,0.00,,,2013-02-22 15:52:00,
2013-02-22 09:00:00,20.0,18.0,-100.00,NNE,29,1.0,4.0,94,-99.99,,,0.00,8.200000,,2013-02-22 16:00:00,
2013-02-22 09:52:00,20.0,18.0,-100.00,NNE,29,1.0,4.0,94,-99.99,,,0.00,8.200000,,2013-02-22 16:52:00,
2013-02-22 11:00:00,24.0,23.0,-100.00,NNE,15,1.0,4.0,93,-99.99,,,0.00,55.900002,,2013-02-22 18:00:00,
2013-02-22 11:52:00,24.0,23.0,-100.00,NNE,15,1.0,4.0,93,-99.99,,,0.00,55.900002,,2013-02-22 18:52:00,
2013-02-22 12:00:00,26.0,24.0,-100.00,NNE,20,1.0,5.0,90,-99.99,,,0.01,87.300003,,2013-02-22 19:00:00,
2013-02-22 12:52:00,26.0,24.0,-100.00,NNE,20,1.0,5.0,90,-99.99,,,0.01,87.300003,,2013-02-22 19:52:00,
2013-02-22 13:00:00,24.0,21.0,-100.00,NE,40,1.0,5.0,87,-99.99,,,0.01,49.799999,,2013-02-22 20:00:00,
2013-02-22 13:52:00,24.0,21.0,-100.00,NE,40,1.0,5.0,87,-99.99,,,0.01,49.799999,,2013-02-22 20:52:00,
2013-02-22 14:00:00,24.0,21.0,-100.00,NNE,18,1.0,6.0,88,-99.99,,,0.01,46.400002,,2013-02-22 21:00:00,
2013-02-22 14:52:00,24.0,21.0,-100.00,NNE,18,1.0,6.0,88,-99.99,,,0.01,46.400002,,2013-02-22 21:52:00,
2013-02-22 15:00:00,22.0,20.0,-100.00,North,10,1.0,6.0,91,-99.99,,,0.00,26.000000,,2013-02-22 22:00:00,
2013-02-22 15:52:00,22.0,20.0,-100.00,North,10,1.0,6.0,91,-99.99,,,0.00,26.000000,,2013-02-22 22:52:00,
2013-02-22 16:00:00,22.0,21.0,-100.00,NE,41,1.0,5.0,93,-99.99,,,0.00,18.299999,,2013-02-22 23:00:00,
2013-02-22 16:52:00,22.0,21.0,-100.00,NE,41,1.0,5.0,93,-99.99,,,0.00,18.299999,,2013-02-22 23:52:00,
2013-02-22 17:00:00,21.0,19.0,-100.00,NNE,32,1.0,4.0,93,-99.99,,,0.00,7.600000,,2013-02-23 00:00:00,
2013-02-22 17:52:00,21.0,19.0,-100.00,NNE,32,1.0,4.0,93,-99.99,,,0.00,7.600000,,2013-02-23 00:52:00,
2013-02-22 18:00:00,20.0,19.0,-100.00,NE,37,1.0,6.0,94,-99.99,,,0.01,0.600000,,2013-02-23 01:00:00,
2013-02-22 18:52:00,20.0,19.0,-100.00,NE,37,1.0,6.0,94,-99.99,,,0.01,0.600000,,2013-02-23 01:52:00,
2013-02-22 19:00:00,19.0,17.0,-100.00,NNE,23,1.0,5.0,92,-99.99,,,0.02,0.000000,,2013-02-23 02:00:00,
2013-02-22 19:52:00,19.0,17.0,-100.00,NNE,23,1.0,5.0,92,-99.99,,,0.02,0.000000,,2013-02-23 02:52:00,
2013-02-22 20:00:00,17.0,16.0,-100.00,NE,39,1.0,6.0,93,-99.99,,,0.01,0.000000,,2013-02-23 03:00:00,
2013-02-22 20:52:00,17.0,16.0,-100.00,NE,39,1.0,6.0,93,-99.99,,,0.01,0.000000,,2013-02-23 03:52:00,
2013-02-22 21:00:00,17.0,16.0,-100.00,NNE,18,1.0,5.0,93,-99.99,,,0.02,0.000000,,2013-02-23 04:00:00,
2013-02-22 21:52:00,17.0,16.0,-100.00,NNE,18,1.0,5.0,93,-99.99,,,0.02,0.000000,,2013-02-23 04:52:00,
2013-02-22 22:00:00,16.0,14.0,-100.00,NE,37,1.0,4.0,93,-99.99,,,0.02,0.000000,,2013-02-23 05:00:00,
2013-02-22 22:52:00,16.0,14.0,-100.00,NE,37,1.0,4.0,93,-99.99,,,0.02,0.000000,,2013-02-23 05:52:00,
2013-02-22 23:00:00,15.0,13.0,-100.00,ENE,77,1.0,4.0,92,-99.99,,,0.02,0.000000,,2013-02-23 06:00:00,
2013-02-22 23:52:00,15.0,13.0,-100.00,ENE,77,1.0,4.0,92,-99.99,,,0.02,0.000000,,2013-02-23 06:52:00,